Mariaheide, Netherlands
Current Conditions -  °F | °C
As of 3:25 PM on Saturday 25 Oct 2014 (Local Time) from EHVK Reporting Station
Haze Haze  
Wind Chill: 57°   Ceiling: 3600
Heat Index: 57°   Visibility: 4mi
Dew Point: 55°   Wind: 7mph
Humidity: 94%   Direction: 210°SSW
Pressure: 30.06"   Gusts: NA
Location:  51.63°N, 5.58°E
Report Text: EHVK 251325Z AUTO 21006KT 7000 BR FEW006 SCT032 BKN036 14/13 Q1018 WHT
Loading
Personal Weather Stations






























Interactive Weather Map
Tropical Storm Tracking
New forecast layout! Learn more

10-Day Weather Forecast

Advertisements
Track Severe Weather on mobile